sensor_id;sensor_type;location;lat;lon;timestamp;pressure;altitude;pressure_sealevel;temperature;humidity
13312;BME280;34033;48.672;9.376;2023-08-31T00:00:41;97993.56;;;16.69;91.89
13312;BME280;34033;48.672;9.376;2023-08-31T00:03:07;97996.84;;;16.67;91.45
13312;BME280;34033;48.672;9.376;2023-08-31T00:05:37;97999.66;;;16.67;92.15
13312;BME280;34033;48.672;9.376;2023-08-31T00:08:02;98007.31;;;16.67;91.85
13312;BME280;34033;48.672;9.376;2023-08-31T00:10:28;98003.53;;;16.74;92.43
13312;BME280;34033;48.672;9.376;2023-08-31T00:12:54;98001.41;;;16.78;92.41
13312;BME280;34033;48.672;9.376;2023-08-31T00:15:20;98001.06;;;16.76;92.26
13312;BME280;34033;48.672;9.376;2023-08-31T00:17:45;98001.34;;;16.81;92.33
13312;BME280;34033;48.672;9.376;2023-08-31T00:20:10;98006.88;;;16.85;91.85
13312;BME280;34033;48.672;9.376;2023-08-31T00:22:38;98005.66;;;16.86;90.79
13312;BME280;34033;48.672;9.376;2023-08-31T00:25:05;98003.06;;;16.91;90.96
13312;BME280;34033;48.672;9.376;2023-08-31T00:27:34;97999.72;;;16.96;90.45
13312;BME280;34033;48.672;9.376;2023-08-31T00:29:59;97996.91;;;16.96;89.77
13312;BME280;34033;48.672;9.376;2023-08-31T00:32:24;98002.31;;;16.75;88.20
13312;BME280;34033;48.672;9.376;2023-08-31T00:34:50;98001.41;;;16.78;88.49
13312;BME280;34033;48.672;9.376;2023-08-31T00:37:16;98004.06;;;16.68;88.43
13312;BME280;34033;48.672;9.376;2023-08-31T00:39:42;98013.41;;;16.65;89.88
13312;BME280;34033;48.672;9.376;2023-08-31T00:42:08;98019.41;;;16.67;91.27
13312;BME280;34033;48.672;9.376;2023-08-31T00:44:34;98018.84;;;16.56;89.23
13312;BME280;34033;48.672;9.376;2023-08-31T00:47:00;98033.75;;;16.41;89.38
13312;BME280;34033;48.672;9.376;2023-08-31T00:49:27;98029.34;;;16.40;91.35
13312;BME280;34033;48.672;9.376;2023-08-31T00:51:52;98022.28;;;16.32;90.16
13312;BME280;34033;48.672;9.376;2023-08-31T00:54:18;98024.66;;;16.33;90.83
13312;BME280;34033;48.672;9.376;2023-08-31T00:56:43;98018.47;;;16.38;91.06
13312;BME280;34033;48.672;9.376;2023-08-31T00:59:09;98019.47;;;16.32;91.00
13312;BME280;34033;48.672;9.376;2023-08-31T01:01:41;98023.97;;;16.45;92.25
13312;BME280;34033;48.672;9.376;2023-08-31T01:14:34;98019.75;;;16.01;92.94
13312;BME280;34033;48.672;9.376;2023-08-31T01:17:04;98018.44;;;16.06;92.91
13312;BME280;34033;48.672;9.376;2023-08-31T01:19:50;98010.22;;;15.95;93.40
13312;BME280;34033;48.672;9.376;2023-08-31T01:22:38;98013.69;;;16.03;93.89
13312;BME280;34033;48.672;9.376;2023-08-31T01:25:08;98013.50;;;16.10;92.98
13312;BME280;34033;48.672;9.376;2023-08-31T01:27:35;98017.56;;;16.09;92.85
13312;BME280;34033;48.672;9.376;2023-08-31T01:30:02;98020.47;;;16.05;92.28
13312;BME280;34033;48.672;9.376;2023-08-31T01:32:29;98021.16;;;15.93;92.48
13312;BME280;34033;48.672;9.376;2023-08-31T01:34:54;98031.63;;;15.93;93.31
13312;BME280;34033;48.672;9.376;2023-08-31T01:37:36;98022.00;;;15.90;93.48
13312;BME280;34033;48.672;9.376;2023-08-31T01:40:12;98019.94;;;16.10;95.39
13312;BME280;34033;48.672;9.376;2023-08-31T01:42:42;98026.63;;;16.00;93.26
13312;BME280;34033;48.672;9.376;2023-08-31T01:45:08;98032.25;;;16.00;92.43
13312;BME280;34033;48.672;9.376;2023-08-31T01:47:33;98029.72;;;16.06;92.60
13312;BME280;34033;48.672;9.376;2023-08-31T01:49:59;98040.94;;;16.09;92.48
13312;BME280;34033;48.672;9.376;2023-08-31T01:52:24;98044.69;;;16.03;92.54
13312;BME280;34033;48.672;9.376;2023-08-31T01:54:50;98049.09;;;16.04;91.97
13312;BME280;34033;48.672;9.376;2023-08-31T01:57:15;98051.56;;;16.02;91.67
13312;BME280;34033;48.672;9.376;2023-08-31T01:59:40;98051.31;;;16.12;92.09
13312;BME280;34033;48.672;9.376;2023-08-31T02:02:06;98050.16;;;16.10;91.74
13312;BME280;34033;48.672;9.376;2023-08-31T02:04:31;98050.41;;;15.99;91.80
13312;BME280;34033;48.672;9.376;2023-08-31T02:06:56;98048.53;;;15.93;92.28
13312;BME280;34033;48.672;9.376;2023-08-31T02:09:22;98041.88;;;16.03;92.10
13312;BME280;34033;48.672;9.376;2023-08-31T02:11:47;98045.84;;;16.05;91.89
13312;BME280;34033;48.672;9.376;2023-08-31T02:14:13;98045.53;;;16.19;92.06
13312;BME280;34033;48.672;9.376;2023-08-31T02:16:39;98050.56;;;16.28;91.03
13312;BME280;34033;48.672;9.376;2023-08-31T02:19:04;98045.47;;;16.39;91.65
13312;BME280;34033;48.672;9.376;2023-08-31T02:21:30;98053.75;;;16.46;90.86
13312;BME280;34033;48.672;9.376;2023-08-31T02:23:55;98053.25;;;16.51;90.19
13312;BME280;34033;48.672;9.376;2023-08-31T02:26:21;98055.69;;;16.49;88.61
13312;BME280;34033;48.672;9.376;2023-08-31T02:28:47;98054.84;;;16.52;89.36
13312;BME280;34033;48.672;9.376;2023-08-31T02:31:16;98062.78;;;16.57;89.51
13312;BME280;34033;48.672;9.376;2023-08-31T02:33:42;98056.41;;;16.37;88.79
13312;BME280;34033;48.672;9.376;2023-08-31T02:36:07;98053.31;;;16.32;89.64
13312;BME280;34033;48.672;9.376;2023-08-31T02:38:32;98061.78;;;16.32;90.36
13312;BME280;34033;48.672;9.376;2023-08-31T02:40:58;98062.53;;;16.32;89.91
13312;BME280;34033;48.672;9.376;2023-08-31T02:43:23;98065.59;;;15.85;91.00
13312;BME280;34033;48.672;9.376;2023-08-31T02:45:50;98064.34;;;16.06;92.75
13312;BME280;34033;48.672;9.376;2023-08-31T02:48:23;98055.38;;;16.11;92.21
13312;BME280;34033;48.672;9.376;2023-08-31T02:50:48;98055.31;;;16.15;91.65
13312;BME280;34033;48.672;9.376;2023-08-31T02:53:14;98067.44;;;16.12;91.03
13312;BME280;34033;48.672;9.376;2023-08-31T02:55:39;98063.63;;;16.02;90.61
13312;BME280;34033;48.672;9.376;2023-08-31T02:58:06;98059.78;;;16.12;91.67
13312;BME280;34033;48.672;9.376;2023-08-31T03:00:32;98064.91;;;16.17;91.55
13312;BME280;34033;48.672;9.376;2023-08-31T03:02:58;98064.63;;;16.12;90.80
13312;BME280;34033;48.672;9.376;2023-08-31T03:05:23;98071.34;;;16.18;90.78
13312;BME280;34033;48.672;9.376;2023-08-31T03:07:49;98064.44;;;16.03;90.99
13312;BME280;34033;48.672;9.376;2023-08-31T03:10:14;98063.72;;;15.99;91.24
13312;BME280;34033;48.672;9.376;2023-08-31T03:12:39;98071.38;;;15.78;93.31
13312;BME280;34033;48.672;9.376;2023-08-31T03:15:06;98077.16;;;15.71;91.77
13312;BME280;34033;48.672;9.376;2023-08-31T03:17:32;98074.63;;;15.77;93.24
13312;BME280;34033;48.672;9.376;2023-08-31T03:19:57;98069.88;;;15.74;93.09
13312;BME280;34033;48.672;9.376;2023-08-31T03:22:22;98073.00;;;15.60;92.29
13312;BME280;34033;48.672;9.376;2023-08-31T03:24:48;98086.19;;;15.63;92.50
13312;BME280;34033;48.672;9.376;2023-08-31T03:27:13;98086.88;;;15.47;92.77
13312;BME280;34033;48.672;9.376;2023-08-31T03:29:39;98086.28;;;15.59;93.37
13312;BME280;34033;48.672;9.376;2023-08-31T03:32:05;98086.56;;;15.65;92.84
13312;BME280;34033;48.672;9.376;2023-08-31T03:34:31;98078.63;;;15.60;93.06
13312;BME280;34033;48.672;9.376;2023-08-31T03:36:57;98083.00;;;15.61;92.94
13312;BME280;34033;48.672;9.376;2023-08-31T03:39:23;98082.56;;;15.62;93.36
13312;BME280;34033;48.672;9.376;2023-08-31T03:41:49;98085.19;;;15.53;93.00
13312;BME280;34033;48.672;9.376;2023-08-31T03:44:14;98087.72;;;15.44;93.33
13312;BME280;34033;48.672;9.376;2023-08-31T03:46:39;98094.44;;;15.50;94.02
13312;BME280;34033;48.672;9.376;2023-08-31T03:49:05;98092.75;;;15.56;93.89
13312;BME280;34033;48.672;9.376;2023-08-31T03:51:30;98092.03;;;15.52;93.77
13312;BME280;34033;48.672;9.376;2023-08-31T03:53:55;98088.22;;;15.62;93.44
13312;BME280;34033;48.672;9.376;2023-08-31T03:56:22;98092.72;;;15.60;92.26
13312;BME280;34033;48.672;9.376;2023-08-31T03:58:47;98090.31;;;15.58;93.27
13312;BME280;34033;48.672;9.376;2023-08-31T04:01:12;98105.63;;;15.57;93.53
13312;BME280;34033;48.672;9.376;2023-08-31T04:03:39;98111.34;;;15.54;93.64
13312;BME280;34033;48.672;9.376;2023-08-31T04:06:04;98114.81;;;15.38;93.21
13312;BME280;34033;48.672;9.376;2023-08-31T04:08:30;98114.56;;;15.52;99.04
13312;BME280;34033;48.672;9.376;2023-08-31T04:10:56;98114.25;;;15.70;95.71
13312;BME280;34033;48.672;9.376;2023-08-31T04:13:21;98121.47;;;15.71;93.38
13312;BME280;34033;48.672;9.376;2023-08-31T04:15:47;98111.84;;;15.68;92.59
13312;BME280;34033;48.672;9.376;2023-08-31T04:18:12;98120.81;;;15.63;92.69
13312;BME280;34033;48.672;9.376;2023-08-31T04:20:37;98116.91;;;15.57;92.56
13312;BME280;34033;48.672;9.376;2023-08-31T04:23:03;98111.97;;;15.61;92.67
13312;BME280;34033;48.672;9.376;2023-08-31T04:25:29;98122.16;;;15.55;92.54
13312;BME280;34033;48.672;9.376;2023-08-31T04:27:56;98120.94;;;15.56;92.31
13312;BME280;34033;48.672;9.376;2023-08-31T04:30:22;98128.97;;;15.58;92.37
13312;BME280;34033;48.672;9.376;2023-08-31T04:32:47;98127.78;;;15.55;92.67
13312;BME280;34033;48.672;9.376;2023-08-31T04:35:13;98129.03;;;15.54;92.98
13312;BME280;34033;48.672;9.376;2023-08-31T04:37:38;98138.72;;;15.53;93.26
13312;BME280;34033;48.672;9.376;2023-08-31T04:40:04;98140.66;;;15.56;93.17
13312;BME280;34033;48.672;9.376;2023-08-31T04:42:30;98142.13;;;15.64;93.58
13312;BME280;34033;48.672;9.376;2023-08-31T04:44:55;98138.81;;;15.46;92.79
13312;BME280;34033;48.672;9.376;2023-08-31T04:47:21;98145.06;;;15.57;92.66
13312;BME280;34033;48.672;9.376;2023-08-31T04:49:46;98140.03;;;15.68;92.81
13312;BME280;34033;48.672;9.376;2023-08-31T04:52:11;98139.44;;;15.77;92.01
13312;BME280;34033;48.672;9.376;2023-08-31T04:54:37;98141.56;;;15.93;91.66
13312;BME280;34033;48.672;9.376;2023-08-31T04:57:02;98128.84;;;15.84;90.55
13312;BME280;34033;48.672;9.376;2023-08-31T04:59:28;98143.06;;;15.77;90.15
13312;BME280;34033;48.672;9.376;2023-08-31T05:01:53;98149.56;;;15.74;90.21
13312;BME280;34033;48.672;9.376;2023-08-31T05:04:19;98156.06;;;15.71;90.14
13312;BME280;34033;48.672;9.376;2023-08-31T05:06:44;98162.19;;;15.66;89.93
13312;BME280;34033;48.672;9.376;2023-08-31T05:09:09;98159.38;;;15.66;90.28
13312;BME280;34033;48.672;9.376;2023-08-31T05:11:35;98155.72;;;15.69;90.64
13312;BME280;34033;48.672;9.376;2023-08-31T05:14:00;98162.94;;;15.70;90.92
13312;BME280;34033;48.672;9.376;2023-08-31T05:16:25;98161.34;;;15.69;91.39
13312;BME280;34033;48.672;9.376;2023-08-31T05:18:51;98164.16;;;15.69;92.01
13312;BME280;34033;48.672;9.376;2023-08-31T05:21:16;98167.69;;;15.73;92.61
13312;BME280;34033;48.672;9.376;2023-08-31T05:23:41;98168.00;;;15.79;92.71
13312;BME280;34033;48.672;9.376;2023-08-31T05:26:07;98175.16;;;15.83;91.82
13312;BME280;34033;48.672;9.376;2023-08-31T05:28:33;98176.25;;;15.90;90.37
13312;BME280;34033;48.672;9.376;2023-08-31T05:31:00;98182.69;;;15.90;90.25
13312;BME280;34033;48.672;9.376;2023-08-31T05:33:26;98176.63;;;15.92;89.75
13312;BME280;34033;48.672;9.376;2023-08-31T05:35:53;98176.63;;;15.92;89.60
13312;BME280;34033;48.672;9.376;2023-08-31T05:38:18;98184.66;;;15.93;90.27
13312;BME280;34033;48.672;9.376;2023-08-31T05:40:43;98179.72;;;15.97;89.50
13312;BME280;34033;48.672;9.376;2023-08-31T05:43:14;98187.78;;;15.99;89.60
13312;BME280;34033;48.672;9.376;2023-08-31T05:45:40;98192.53;;;16.02;89.42
13312;BME280;34033;48.672;9.376;2023-08-31T05:48:05;98186.16;;;15.98;89.03
13312;BME280;34033;48.672;9.376;2023-08-31T05:50:31;98187.78;;;15.99;88.79
13312;BME280;34033;48.672;9.376;2023-08-31T05:52:56;98189.34;;;16.00;89.22
13312;BME280;34033;48.672;9.376;2023-08-31T05:55:22;98196.44;;;16.08;88.70
13312;BME280;34033;48.672;9.376;2023-08-31T05:57:47;98197.22;;;16.08;87.58
13312;BME280;34033;48.672;9.376;2023-08-31T06:00:13;98200.47;;;16.07;87.91
13312;BME280;34033;48.672;9.376;2023-08-31T06:02:38;98206.78;;;16.14;88.72
13312;BME280;34033;48.672;9.376;2023-08-31T06:05:04;98201.06;;;16.18;88.74
13312;BME280;34033;48.672;9.376;2023-08-31T06:07:31;98203.81;;;16.21;88.08
13312;BME280;34033;48.672;9.376;2023-08-31T06:09:56;98201.78;;;16.22;88.03
13312;BME280;34033;48.672;9.376;2023-08-31T06:12:22;98211.03;;;16.22;87.83
13312;BME280;34033;48.672;9.376;2023-08-31T06:14:47;98215.09;;;16.21;87.88
13312;BME280;34033;48.672;9.376;2023-08-31T06:17:13;98218.78;;;16.18;88.05
13312;BME280;34033;48.672;9.376;2023-08-31T06:19:41;98214.78;;;16.16;88.35
13312;BME280;34033;48.672;9.376;2023-08-31T06:22:08;98217.56;;;16.19;88.72
13312;BME280;34033;48.672;9.376;2023-08-31T06:24:33;98229.63;;;16.20;88.09
13312;BME280;34033;48.672;9.376;2023-08-31T06:26:59;98222.81;;;16.17;88.17
13312;BME280;34033;48.672;9.376;2023-08-31T06:29:25;98238.91;;;16.20;88.45
13312;BME280;34033;48.672;9.376;2023-08-31T06:31:50;98239.91;;;16.30;89.31
13312;BME280;34033;48.672;9.376;2023-08-31T06:34:16;98244.31;;;16.31;87.57
13312;BME280;34033;48.672;9.376;2023-08-31T06:36:41;98242.84;;;16.23;87.22
13312;BME280;34033;48.672;9.376;2023-08-31T06:39:06;98251.47;;;16.36;88.04
13312;BME280;34033;48.672;9.376;2023-08-31T06:41:32;98243.16;;;16.48;87.94
13312;BME280;34033;48.672;9.376;2023-08-31T06:43:57;98235.69;;;16.58;87.60
13312;BME280;34033;48.672;9.376;2023-08-31T06:46:23;98230.66;;;16.69;87.48
13312;BME280;34033;48.672;9.376;2023-08-31T06:48:48;98241.00;;;16.76;87.13
13312;BME280;34033;48.672;9.376;2023-08-31T06:51:14;98234.66;;;16.88;86.17
13312;BME280;34033;48.672;9.376;2023-08-31T06:53:41;98243.69;;;16.99;86.17
13312;BME280;34033;48.672;9.376;2023-08-31T06:56:07;98246.88;;;17.01;85.35
13312;BME280;34033;48.672;9.376;2023-08-31T06:58:32;98249.19;;;16.70;85.19
13312;BME280;34033;48.672;9.376;2023-08-31T07:00:57;98252.84;;;16.87;85.62
13312;BME280;34033;48.672;9.376;2023-08-31T07:03:23;98251.81;;;16.97;85.20
13312;BME280;34033;48.672;9.376;2023-08-31T07:05:49;98261.19;;;17.10;85.16
13312;BME280;34033;48.672;9.376;2023-08-31T07:08:14;98261.19;;;17.10;83.96
13312;BME280;34033;48.672;9.376;2023-08-31T07:10:39;98263.28;;;17.06;83.15
13312;BME280;34033;48.672;9.376;2023-08-31T07:13:05;98260.19;;;17.00;83.20
13312;BME280;34033;48.672;9.376;2023-08-31T07:15:30;98261.50;;;16.96;82.96
13312;BME280;34033;48.672;9.376;2023-08-31T07:17:56;98265.00;;;16.84;83.44
13312;BME280;34033;48.672;9.376;2023-08-31T07:20:21;98269.63;;;16.94;83.94
13312;BME280;34033;48.672;9.376;2023-08-31T07:22:47;98267.72;;;17.07;83.82
13312;BME280;34033;48.672;9.376;2023-08-31T07:25:13;98274.22;;;17.04;84.46
13312;BME280;34033;48.672;9.376;2023-08-31T07:27:38;98275.75;;;17.08;84.36
13312;BME280;34033;48.672;9.376;2023-08-31T07:30:04;98280.56;;;16.92;83.96
13312;BME280;34033;48.672;9.376;2023-08-31T07:32:30;98284.25;;;16.89;84.08
13312;BME280;34033;48.672;9.376;2023-08-31T07:34:56;98282.81;;;16.81;84.58
13312;BME280;34033;48.672;9.376;2023-08-31T07:37:21;98286.31;;;16.68;84.39
13312;BME280;34033;48.672;9.376;2023-08-31T07:39:47;98293.75;;;16.79;84.37
13312;BME280;34033;48.672;9.376;2023-08-31T07:42:12;98296.09;;;16.41;84.39
13312;BME280;34033;48.672;9.376;2023-08-31T07:44:37;98297.50;;;16.52;85.00
13312;BME280;34033;48.672;9.376;2023-08-31T07:47:03;98306.31;;;16.35;86.45
13312;BME280;34033;48.672;9.376;2023-08-31T07:49:28;98304.78;;;16.50;86.68
13312;BME280;34033;48.672;9.376;2023-08-31T07:51:53;98316.25;;;16.62;86.21
13312;BME280;34033;48.672;9.376;2023-08-31T07:54:22;98317.56;;;16.78;85.52
13312;BME280;34033;48.672;9.376;2023-08-31T07:56:48;98313.72;;;16.88;84.00
13312;BME280;34033;48.672;9.376;2023-08-31T07:59:13;98309.31;;;16.87;83.56
13312;BME280;34033;48.672;9.376;2023-08-31T08:01:39;98316.47;;;16.72;82.55
13312;BME280;34033;48.672;9.376;2023-08-31T08:04:06;98308.94;;;16.85;82.67
13312;BME280;34033;48.672;9.376;2023-08-31T08:06:31;98297.78;;;16.97;82.71
13312;BME280;34033;48.672;9.376;2023-08-31T08:08:56;98302.47;;;17.04;81.94
13312;BME280;34033;48.672;9.376;2023-08-31T08:11:22;98299.34;;;17.18;82.26
13312;BME280;34033;48.672;9.376;2023-08-31T08:13:48;98298.72;;;17.27;80.29
13312;BME280;34033;48.672;9.376;2023-08-31T08:16:13;98294.56;;;17.31;79.36
13312;BME280;34033;48.672;9.376;2023-08-31T08:18:39;98282.25;;;17.41;79.68
13312;BME280;34033;48.672;9.376;2023-08-31T08:21:05;98294.00;;;17.56;78.40
13312;BME280;34033;48.672;9.376;2023-08-31T08:23:30;98292.28;;;17.62;75.81
13312;BME280;34033;48.672;9.376;2023-08-31T08:25:56;98297.50;;;17.64;75.74
13312;BME280;34033;48.672;9.376;2023-08-31T08:28:21;98290.50;;;17.68;74.20
13312;BME280;34033;48.672;9.376;2023-08-31T08:30:46;98291.22;;;17.72;73.58
13312;BME280;34033;48.672;9.376;2023-08-31T08:33:12;98307.00;;;17.70;71.44
13312;BME280;34033;48.672;9.376;2023-08-31T08:35:38;98308.78;;;17.80;71.53
13312;BME280;34033;48.672;9.376;2023-08-31T08:38:04;98300.06;;;17.74;69.97
13312;BME280;34033;48.672;9.376;2023-08-31T08:40:31;98304.81;;;17.77;70.69
13312;BME280;34033;48.672;9.376;2023-08-31T08:42:59;98302.59;;;17.85;69.97
13312;BME280;34033;48.672;9.376;2023-08-31T08:45:28;98305.97;;;17.96;69.37
13312;BME280;34033;48.672;9.376;2023-08-31T08:47:57;98305.69;;;18.07;69.33
13312;BME280;34033;48.672;9.376;2023-08-31T08:50:22;98300.97;;;18.16;68.85
13312;BME280;34033;48.672;9.376;2023-08-31T08:52:49;98309.28;;;18.23;69.16
13312;BME280;34033;48.672;9.376;2023-08-31T08:55:15;98308.88;;;18.38;66.06
13312;BME280;34033;48.672;9.376;2023-08-31T08:57:41;98306.63;;;18.61;66.05
13312;BME280;34033;48.672;9.376;2023-08-31T09:00:07;98316.19;;;18.51;64.85
13312;BME280;34033;48.672;9.376;2023-08-31T09:02:32;98309.59;;;18.70;61.89
13312;BME280;34033;48.672;9.376;2023-08-31T09:04:57;98312.75;;;18.60;54.27
13312;BME280;34033;48.672;9.376;2023-08-31T09:07:24;98318.50;;;18.56;54.65
13312;BME280;34033;48.672;9.376;2023-08-31T09:09:50;98317.72;;;18.40;54.02
13312;BME280;34033;48.672;9.376;2023-08-31T09:12:16;98319.50;;;18.33;54.53
13312;BME280;34033;48.672;9.376;2023-08-31T09:14:41;98328.81;;;18.34;55.72
13312;BME280;34033;48.672;9.376;2023-08-31T09:17:07;98326.59;;;18.25;52.35
13312;BME280;34033;48.672;9.376;2023-08-31T09:19:32;98340.97;;;18.47;52.27
13312;BME280;34033;48.672;9.376;2023-08-31T09:21:57;98332.22;;;18.42;53.38
13312;BME280;34033;48.672;9.376;2023-08-31T09:24:23;98327.44;;;18.55;54.97
13312;BME280;34033;48.672;9.376;2023-08-31T09:26:58;98329.88;;;18.69;54.75
13312;BME280;34033;48.672;9.376;2023-08-31T09:29:24;98334.25;;;18.57;52.18
13312;BME280;34033;48.672;9.376;2023-08-31T09:31:50;98333.06;;;18.71;53.63
13312;BME280;34033;48.672;9.376;2023-08-31T09:34:16;98333.91;;;18.84;53.98
13312;BME280;34033;48.672;9.376;2023-08-31T09:36:42;98331.69;;;19.04;55.47
13312;BME280;34033;48.672;9.376;2023-08-31T09:39:08;98327.88;;;19.24;53.09
13312;BME280;34033;48.672;9.376;2023-08-31T09:41:35;98346.03;;;18.97;51.78
13312;BME280;34033;48.672;9.376;2023-08-31T09:44:17;98346.03;;;18.97;52.62
13312;BME280;34033;48.672;9.376;2023-08-31T09:46:43;98344.81;;;18.98;52.12
13312;BME280;34033;48.672;9.376;2023-08-31T09:49:10;98338.81;;;18.96;54.70
13312;BME280;34033;48.672;9.376;2023-08-31T09:51:39;98344.13;;;18.94;52.45
13312;BME280;34033;48.672;9.376;2023-08-31T09:54:07;98346.03;;;18.85;51.69
13312;BME280;34033;48.672;9.376;2023-08-31T09:56:34;98342.94;;;18.79;51.55
13312;BME280;34033;48.672;9.376;2023-08-31T09:59:01;98346.28;;;18.90;51.59
13312;BME280;34033;48.672;9.376;2023-08-31T10:01:27;98343.47;;;19.03;50.76
13312;BME280;34033;48.672;9.376;2023-08-31T10:03:52;98337.69;;;19.06;50.59
13312;BME280;34033;48.672;9.376;2023-08-31T10:06:18;98343.16;;;19.26;52.04
13312;BME280;34033;48.672;9.376;2023-08-31T10:08:45;98338.19;;;19.43;49.49
13312;BME280;34033;48.672;9.376;2023-08-31T10:11:11;98338.75;;;19.25;47.12
13312;BME280;34033;48.672;9.376;2023-08-31T10:13:40;98340.00;;;19.37;50.27
13312;BME280;34033;48.672;9.376;2023-08-31T10:16:06;98345.00;;;19.33;48.75
13312;BME280;34033;48.672;9.376;2023-08-31T10:18:34;98347.72;;;19.24;48.65
13312;BME280;34033;48.672;9.376;2023-08-31T10:21:02;98342.25;;;19.16;49.81
13312;BME280;34033;48.672;9.376;2023-08-31T10:23:28;98348.75;;;18.88;49.25
13312;BME280;34033;48.672;9.376;2023-08-31T10:31:15;98335.44;;;19.01;46.26
13312;BME280;34033;48.672;9.376;2023-08-31T10:38:38;98354.63;;;19.35;46.24
13312;BME280;34033;48.672;9.376;2023-08-31T10:46:16;98335.53;;;19.77;46.76
13312;BME280;34033;48.672;9.376;2023-08-31T10:48:55;98342.22;;;19.71;45.32
13312;BME280;34033;48.672;9.376;2023-08-31T10:51:25;98347.09;;;19.95;45.47
13312;BME280;34033;48.672;9.376;2023-08-31T10:53:50;98341.59;;;20.14;47.53
13312;BME280;34033;48.672;9.376;2023-08-31T10:56:17;98341.22;;;20.24;45.11
13312;BME280;34033;48.672;9.376;2023-08-31T10:58:43;98341.81;;;20.32;45.28
13312;BME280;34033;48.672;9.376;2023-08-31T11:01:09;98339.84;;;20.42;43.79
13312;BME280;34033;48.672;9.376;2023-08-31T11:03:57;98339.19;;;20.37;42.57
13312;BME280;34033;48.672;9.376;2023-08-31T11:06:23;98334.38;;;20.47;43.78
13312;BME280;34033;48.672;9.376;2023-08-31T11:08:53;98334.47;;;20.56;43.89
13312;BME280;34033;48.672;9.376;2023-08-31T11:11:19;98336.75;;;20.49;43.99
13312;BME280;34033;48.672;9.376;2023-08-31T11:13:45;98341.72;;;20.10;43.75
13312;BME280;34033;48.672;9.376;2023-08-31T11:16:10;98340.56;;;20.08;43.56
13312;BME280;34033;48.672;9.376;2023-08-31T11:18:36;98346.78;;;20.28;44.54
13312;BME280;34033;48.672;9.376;2023-08-31T11:21:02;98327.44;;;20.48;45.37
13312;BME280;34033;48.672;9.376;2023-08-31T11:23:31;98329.31;;;20.86;44.19
13312;BME280;34033;48.672;9.376;2023-08-31T11:25:56;98339.28;;;21.12;42.45
13312;BME280;34033;48.672;9.376;2023-08-31T11:28:22;98332.94;;;21.30;42.10
13312;BME280;34033;48.672;9.376;2023-08-31T11:30:48;98333.94;;;21.36;41.72
13312;BME280;34033;48.672;9.376;2023-08-31T11:33:13;98322.22;;;21.64;41.31
13312;BME280;34033;48.672;9.376;2023-08-31T11:35:42;98321.69;;;21.88;40.48
13312;BME280;34033;48.672;9.376;2023-08-31T11:38:08;98320.94;;;21.96;40.19
13312;BME280;34033;48.672;9.376;2023-08-31T11:40:35;98324.75;;;21.62;39.37
13312;BME280;34033;48.672;9.376;2023-08-31T11:43:01;98330.34;;;21.75;40.40
13312;BME280;34033;48.672;9.376;2023-08-31T11:45:29;98320.72;;;21.82;40.49
13312;BME280;34033;48.672;9.376;2023-08-31T11:47:55;98321.63;;;21.79;38.32
13312;BME280;34033;48.672;9.376;2023-08-31T11:50:22;98316.88;;;21.67;38.56
13312;BME280;34033;48.672;9.376;2023-08-31T11:52:48;98315.66;;;21.46;39.56
13312;BME280;34033;48.672;9.376;2023-08-31T11:55:15;98317.06;;;21.41;40.76
13312;BME280;34033;48.672;9.376;2023-08-31T11:57:48;98316.03;;;21.57;40.28
13312;BME280;34033;48.672;9.376;2023-08-31T12:00:16;98320.41;;;21.89;40.91
13312;BME280;34033;48.672;9.376;2023-08-31T12:02:42;98317.34;;;22.05;41.73
13312;BME280;34033;48.672;9.376;2023-08-31T12:05:07;98327.81;;;21.77;39.01
13312;BME280;34033;48.672;9.376;2023-08-31T12:07:39;98316.38;;;21.68;39.83
13312;BME280;34033;48.672;9.376;2023-08-31T12:10:06;98314.03;;;21.67;40.38
13312;BME280;34033;48.672;9.376;2023-08-31T12:12:32;98303.09;;;22.05;41.99
13312;BME280;34033;48.672;9.376;2023-08-31T12:15:02;98308.69;;;22.54;40.90
13312;BME280;34033;48.672;9.376;2023-08-31T12:17:30;98306.81;;;22.78;38.08
13312;BME280;34033;48.672;9.376;2023-08-31T12:20:03;98306.13;;;23.11;38.50
13312;BME280;34033;48.672;9.376;2023-08-31T12:22:30;98304.31;;;23.41;38.30
13312;BME280;34033;48.672;9.376;2023-08-31T12:24:55;98305.91;;;23.33;36.86
13312;BME280;34033;48.672;9.376;2023-08-31T12:27:20;98299.31;;;23.68;37.81
13312;BME280;34033;48.672;9.376;2023-08-31T12:29:46;98293.16;;;23.94;36.74
13312;BME280;34033;48.672;9.376;2023-08-31T12:32:11;98303.28;;;24.28;36.57
13312;BME280;34033;48.672;9.376;2023-08-31T12:34:37;98298.41;;;24.43;35.87
13312;BME280;34033;48.672;9.376;2023-08-31T12:37:02;98286.97;;;24.67;35.79
13312;BME280;34033;48.672;9.376;2023-08-31T12:39:29;98289.38;;;24.21;35.19
13312;BME280;34033;48.672;9.376;2023-08-31T12:41:54;98291.75;;;23.89;36.08
13312;BME280;34033;48.672;9.376;2023-08-31T12:44:20;98289.13;;;23.77;36.21
13312;BME280;34033;48.672;9.376;2023-08-31T12:46:45;98303.97;;;23.90;36.48
13312;BME280;34033;48.672;9.376;2023-08-31T12:49:10;98292.06;;;24.15;36.20
13312;BME280;34033;48.672;9.376;2023-08-31T12:51:36;98285.72;;;24.44;35.88
13312;BME280;34033;48.672;9.376;2023-08-31T12:54:01;98289.72;;;24.37;35.03
13312;BME280;34033;48.672;9.376;2023-08-31T12:56:26;98277.84;;;24.53;35.10
13312;BME280;34033;48.672;9.376;2023-08-31T12:58:52;98279.50;;;24.69;35.20
13312;BME280;34033;48.672;9.376;2023-08-31T13:01:19;98268.06;;;24.69;34.58
13312;BME280;34033;48.672;9.376;2023-08-31T13:03:45;98270.03;;;24.78;34.92
13312;BME280;34033;48.672;9.376;2023-08-31T13:06:12;98282.25;;;24.78;34.50
13312;BME280;34033;48.672;9.376;2023-08-31T13:08:37;98286.50;;;24.44;35.15
13312;BME280;34033;48.672;9.376;2023-08-31T13:11:02;98283.63;;;24.68;35.04
13312;BME280;34033;48.672;9.376;2023-08-31T13:13:30;98291.59;;;25.03;34.87
13312;BME280;34033;48.672;9.376;2023-08-31T13:15:56;98277.56;;;25.34;34.38
13312;BME280;34033;48.672;9.376;2023-08-31T13:18:22;98273.19;;;25.53;34.40
13312;BME280;34033;48.672;9.376;2023-08-31T13:20:54;98282.53;;;25.19;34.66